메인 페이지
METAR-TAF:

METAR-TAF

공항 :

San Antonio International Airport

샌안토니오, 텍사스, 미국

위도: 29-31-58N, 경도: 098-27-49W, 고도: 246m

현재 날씨관측

예보는 1 시간 7분 전, 12:51시(UTC)에 발표되었습니다.
동남동7kt
온도 27°C
습도 84%
기압 1009 hPa
시정: 6.4km
고도 1500ft 상공 구름 많음
고도 2600ft 상공 흐림
연무

METAR: KSAT 251251Z 11007KT 4SM HZ BKN015 OVC026 27/24 A2981 RMK AO2 SLP073 T02670239

시각: 08:58 (13:58 UTC)

예보

예보는 2 시간 38분 전, 11:20시(UTC)에 발표되었습니다.
예보 대상 시간: 25일 12시부터 26일 18시까지 (UTC)
남동9kt
시정: 10km
고도 1500ft 상공 구름 많음
25일 1600시부터 (UTC)
남동12kt
시정: 10km
고도 2500ft 상공 구름 많음
25일 1800시부터 (UTC)
남남동15kt
시정: 10km
고도 5000ft 상공 구름 보통
고도 25000ft 상공 구름 보통
26일 0800시부터 (UTC)
남동8kt
시정: 10km
고도 1500ft 상공 구름 많음
26일 1700시부터 (UTC)
남남동11kt
시정: 10km
고도 5000ft 상공 구름 보통

TAF: KSAT 251120Z 2512/2618 13009KT P6SM BKN015 FM251600 14012KT P6SM BKN025 FM251800 15015KT P6SM SCT050 SCT250 FM260800 13008KT P6SM BKN015 FM261700 16011KT P6SM SCT050

4,000개 이상의 공항 관측 자료 및 예보 (METAR 및 TAF 보고).

지도상에서 검색 가능한 기상관측소가 노란 점과 빨간 점으로 표시되어 있습니다.

기상관측소 명을 보려면 표시 위로 마우스를 이동하세요.

날씨 관측과 예보를 보려면 클릭하세요.

지도 변경 : 확대하려면 엑스 표시가 있는 녹색 버튼, 축소하려면 빼기 표시가 있는 녹색 버튼, 다음 페이지의 지도를 보려면 녹색 화살표를 클릭하세요.


METAR-TAF: